sensor_id;sensor_type;location;lat;lon;timestamp;P1;durP1;ratioP1;P2;durP2;ratioP2
10201;SDS011;5143;42.584;23.164;2023-05-19T00:02:15;5.30;;;2.90;;
10201;SDS011;5143;42.584;23.164;2023-05-19T00:04:42;5.30;;;3.10;;
10201;SDS011;5143;42.584;23.164;2023-05-19T00:07:10;5.83;;;3.47;;
10201;SDS011;5143;42.584;23.164;2023-05-19T00:09:42;5.67;;;3.10;;
10201;SDS011;5143;42.584;23.164;2023-05-19T00:12:09;5.03;;;2.57;;
10201;SDS011;5143;42.584;23.164;2023-05-19T00:14:37;5.50;;;3.00;;
10201;SDS011;5143;42.584;23.164;2023-05-19T00:17:05;7.60;;;2.80;;
10201;SDS011;5143;42.584;23.164;2023-05-19T00:19:32;5.23;;;3.00;;
10201;SDS011;5143;42.584;23.164;2023-05-19T00:21:59;6.83;;;2.63;;
10201;SDS011;5143;42.584;23.164;2023-05-19T00:24:27;6.53;;;2.97;;
10201;SDS011;5143;42.584;23.164;2023-05-19T00:26:54;7.63;;;3.40;;
10201;SDS011;5143;42.584;23.164;2023-05-19T00:29:21;6.37;;;2.90;;
10201;SDS011;5143;42.584;23.164;2023-05-19T00:31:47;10.60;;;3.07;;
10201;SDS011;5143;42.584;23.164;2023-05-19T00:34:14;17.03;;;10.40;;
10201;SDS011;5143;42.584;23.164;2023-05-19T00:36:41;13.27;;;8.03;;
10201;SDS011;5143;42.584;23.164;2023-05-19T00:39:08;7.00;;;4.50;;
10201;SDS011;5143;42.584;23.164;2023-05-19T00:41:36;6.23;;;3.20;;
10201;SDS011;5143;42.584;23.164;2023-05-19T00:44:03;4.70;;;3.10;;
10201;SDS011;5143;42.584;23.164;2023-05-19T00:46:30;10.37;;;3.20;;
10201;SDS011;5143;42.584;23.164;2023-05-19T00:48:57;4.73;;;3.30;;
10201;SDS011;5143;42.584;23.164;2023-05-19T00:51:25;7.20;;;3.50;;
10201;SDS011;5143;42.584;23.164;2023-05-19T00:53:53;4.80;;;3.30;;
10201;SDS011;5143;42.584;23.164;2023-05-19T00:56:20;8.67;;;3.80;;
10201;SDS011;5143;42.584;23.164;2023-05-19T00:58:50;7.00;;;4.03;;
10201;SDS011;5143;42.584;23.164;2023-05-19T01:01:17;11.33;;;3.90;;
10201;SDS011;5143;42.584;23.164;2023-05-19T01:03:45;7.77;;;3.40;;
10201;SDS011;5143;42.584;23.164;2023-05-19T01:06:13;4.83;;;3.20;;
10201;SDS011;5143;42.584;23.164;2023-05-19T01:08:43;7.60;;;3.50;;
10201;SDS011;5143;42.584;23.164;2023-05-19T01:11:10;8.93;;;4.00;;
10201;SDS011;5143;42.584;23.164;2023-05-19T01:13:36;5.83;;;3.60;;
10201;SDS011;5143;42.584;23.164;2023-05-19T01:16:06;10.00;;;3.60;;
10201;SDS011;5143;42.584;23.164;2023-05-19T01:18:39;5.27;;;3.47;;
10201;SDS011;5143;42.584;23.164;2023-05-19T01:21:31;4.10;;;3.10;;
10201;SDS011;5143;42.584;23.164;2023-05-19T01:24:32;5.63;;;3.73;;
10201;SDS011;5143;42.584;23.164;2023-05-19T01:32:56;8.67;;;3.30;;
10201;SDS011;5143;42.584;23.164;2023-05-19T01:35:25;6.53;;;3.83;;
10201;SDS011;5143;42.584;23.164;2023-05-19T01:37:53;3.97;;;3.40;;
10201;SDS011;5143;42.584;23.164;2023-05-19T01:40:22;10.73;;;4.50;;
10201;SDS011;5143;42.584;23.164;2023-05-19T01:42:50;9.50;;;4.63;;
10201;SDS011;5143;42.584;23.164;2023-05-19T01:45:19;12.50;;;4.90;;
10201;SDS011;5143;42.584;23.164;2023-05-19T01:47:49;15.23;;;4.63;;
10201;SDS011;5143;42.584;23.164;2023-05-19T01:50:18;9.67;;;4.13;;
10201;SDS011;5143;42.584;23.164;2023-05-19T01:52:45;9.20;;;4.20;;
10201;SDS011;5143;42.584;23.164;2023-05-19T01:55:11;8.57;;;4.30;;
10201;SDS011;5143;42.584;23.164;2023-05-19T01:57:42;6.10;;;4.50;;
10201;SDS011;5143;42.584;23.164;2023-05-19T02:00:17;6.43;;;5.00;;
10201;SDS011;5143;42.584;23.164;2023-05-19T02:02:54;8.30;;;5.33;;
10201;SDS011;5143;42.584;23.164;2023-05-19T02:05:30;10.43;;;4.83;;
10201;SDS011;5143;42.584;23.164;2023-05-19T02:08:04;13.57;;;5.53;;
10201;SDS011;5143;42.584;23.164;2023-05-19T02:10:39;12.93;;;5.40;;
10201;SDS011;5143;42.584;23.164;2023-05-19T02:13:10;12.30;;;5.83;;
10201;SDS011;5143;42.584;23.164;2023-05-19T02:15:41;17.27;;;5.97;;
10201;SDS011;5143;42.584;23.164;2023-05-19T02:18:11;12.63;;;5.80;;
10201;SDS011;5143;42.584;23.164;2023-05-19T02:20:42;16.17;;;6.13;;
10201;SDS011;5143;42.584;23.164;2023-05-19T02:23:08;16.10;;;5.70;;
10201;SDS011;5143;42.584;23.164;2023-05-19T02:25:35;13.63;;;5.23;;
10201;SDS011;5143;42.584;23.164;2023-05-19T02:28:02;14.33;;;5.20;;
10201;SDS011;5143;42.584;23.164;2023-05-19T02:30:30;7.93;;;5.00;;
10201;SDS011;5143;42.584;23.164;2023-05-19T02:32:57;12.90;;;5.03;;
10201;SDS011;5143;42.584;23.164;2023-05-19T02:35:25;12.93;;;5.40;;
10201;SDS011;5143;42.584;23.164;2023-05-19T02:37:53;9.67;;;5.90;;
10201;SDS011;5143;42.584;23.164;2023-05-19T02:40:20;10.20;;;6.43;;
10201;SDS011;5143;42.584;23.164;2023-05-19T02:42:47;7.90;;;5.10;;
10201;SDS011;5143;42.584;23.164;2023-05-19T02:45:14;12.13;;;5.70;;
10201;SDS011;5143;42.584;23.164;2023-05-19T02:47:40;14.83;;;6.47;;
10201;SDS011;5143;42.584;23.164;2023-05-19T02:50:07;14.53;;;5.47;;
10201;SDS011;5143;42.584;23.164;2023-05-19T02:52:36;17.07;;;5.50;;
10201;SDS011;5143;42.584;23.164;2023-05-19T02:55:03;13.87;;;5.80;;
10201;SDS011;5143;42.584;23.164;2023-05-19T02:57:31;11.57;;;5.80;;
10201;SDS011;5143;42.584;23.164;2023-05-19T02:59:59;15.20;;;6.87;;
10201;SDS011;5143;42.584;23.164;2023-05-19T03:02:26;19.57;;;6.70;;
10201;SDS011;5143;42.584;23.164;2023-05-19T03:04:53;12.47;;;6.50;;
10201;SDS011;5143;42.584;23.164;2023-05-19T03:07:20;12.77;;;6.40;;
10201;SDS011;5143;42.584;23.164;2023-05-19T03:09:50;19.73;;;7.00;;
10201;SDS011;5143;42.584;23.164;2023-05-19T03:12:17;13.17;;;6.93;;
10201;SDS011;5143;42.584;23.164;2023-05-19T03:14:44;12.90;;;7.70;;
10201;SDS011;5143;42.584;23.164;2023-05-19T03:17:11;15.30;;;6.83;;
10201;SDS011;5143;42.584;23.164;2023-05-19T03:19:38;16.53;;;6.33;;
10201;SDS011;5143;42.584;23.164;2023-05-19T03:22:05;12.93;;;6.70;;
10201;SDS011;5143;42.584;23.164;2023-05-19T03:24:32;16.63;;;6.63;;
10201;SDS011;5143;42.584;23.164;2023-05-19T03:27:00;15.83;;;6.53;;
10201;SDS011;5143;42.584;23.164;2023-05-19T03:29:29;13.60;;;5.83;;
10201;SDS011;5143;42.584;23.164;2023-05-19T03:31:56;9.73;;;6.17;;
10201;SDS011;5143;42.584;23.164;2023-05-19T03:34:23;12.53;;;6.80;;
10201;SDS011;5143;42.584;23.164;2023-05-19T03:36:50;13.67;;;7.00;;
10201;SDS011;5143;42.584;23.164;2023-05-19T03:39:17;10.23;;;6.73;;
10201;SDS011;5143;42.584;23.164;2023-05-19T03:41:43;16.33;;;7.07;;
10201;SDS011;5143;42.584;23.164;2023-05-19T03:44:11;10.00;;;6.47;;
10201;SDS011;5143;42.584;23.164;2023-05-19T03:46:38;15.17;;;6.80;;
10201;SDS011;5143;42.584;23.164;2023-05-19T03:49:05;18.00;;;6.47;;
10201;SDS011;5143;42.584;23.164;2023-05-19T03:51:31;10.87;;;6.63;;
10201;SDS011;5143;42.584;23.164;2023-05-19T03:53:59;11.93;;;6.50;;
10201;SDS011;5143;42.584;23.164;2023-05-19T03:56:25;21.63;;;7.10;;
10201;SDS011;5143;42.584;23.164;2023-05-19T03:58:52;20.43;;;7.70;;
10201;SDS011;5143;42.584;23.164;2023-05-19T04:01:21;18.43;;;6.80;;
10201;SDS011;5143;42.584;23.164;2023-05-19T04:03:48;16.57;;;7.63;;
10201;SDS011;5143;42.584;23.164;2023-05-19T04:06:14;27.03;;;7.43;;
10201;SDS011;5143;42.584;23.164;2023-05-19T04:08:41;13.13;;;7.43;;
10201;SDS011;5143;42.584;23.164;2023-05-19T04:11:08;15.47;;;7.60;;
10201;SDS011;5143;42.584;23.164;2023-05-19T04:13:35;13.13;;;6.90;;
10201;SDS011;5143;42.584;23.164;2023-05-19T04:16:01;14.73;;;6.37;;
10201;SDS011;5143;42.584;23.164;2023-05-19T04:18:30;13.20;;;7.03;;
10201;SDS011;5143;42.584;23.164;2023-05-19T04:20:56;16.00;;;7.83;;
10201;SDS011;5143;42.584;23.164;2023-05-19T04:23:23;14.77;;;8.23;;
10201;SDS011;5143;42.584;23.164;2023-05-19T04:25:50;15.03;;;7.87;;
10201;SDS011;5143;42.584;23.164;2023-05-19T04:28:18;22.93;;;8.27;;
10201;SDS011;5143;42.584;23.164;2023-05-19T04:30:45;19.83;;;10.00;;
10201;SDS011;5143;42.584;23.164;2023-05-19T04:33:12;26.37;;;11.73;;
10201;SDS011;5143;42.584;23.164;2023-05-19T04:35:40;25.47;;;13.40;;
10201;SDS011;5143;42.584;23.164;2023-05-19T04:38:07;30.93;;;13.17;;
10201;SDS011;5143;42.584;23.164;2023-05-19T04:40:36;28.93;;;13.13;;
10201;SDS011;5143;42.584;23.164;2023-05-19T04:43:04;22.47;;;12.80;;
10201;SDS011;5143;42.584;23.164;2023-05-19T04:45:31;21.30;;;12.53;;
10201;SDS011;5143;42.584;23.164;2023-05-19T04:47:58;20.87;;;12.93;;
10201;SDS011;5143;42.584;23.164;2023-05-19T04:50:25;28.83;;;11.93;;
10201;SDS011;5143;42.584;23.164;2023-05-19T04:52:54;23.07;;;11.83;;
10201;SDS011;5143;42.584;23.164;2023-05-19T04:55:23;19.03;;;10.23;;
10201;SDS011;5143;42.584;23.164;2023-05-19T04:57:49;18.43;;;10.30;;
10201;SDS011;5143;42.584;23.164;2023-05-19T05:00:16;16.87;;;10.23;;
10201;SDS011;5143;42.584;23.164;2023-05-19T05:02:44;37.40;;;21.43;;
10201;SDS011;5143;42.584;23.164;2023-05-19T05:05:11;19.23;;;9.00;;
10201;SDS011;5143;42.584;23.164;2023-05-19T05:07:38;20.63;;;10.87;;
10201;SDS011;5143;42.584;23.164;2023-05-19T05:10:07;19.83;;;11.13;;
10201;SDS011;5143;42.584;23.164;2023-05-19T05:12:35;21.23;;;12.37;;
10201;SDS011;5143;42.584;23.164;2023-05-19T05:15:02;28.83;;;12.40;;
10201;SDS011;5143;42.584;23.164;2023-05-19T05:17:31;35.10;;;13.17;;
10201;SDS011;5143;42.584;23.164;2023-05-19T05:19:59;24.00;;;11.53;;
10201;SDS011;5143;42.584;23.164;2023-05-19T05:22:27;12.83;;;10.07;;
10201;SDS011;5143;42.584;23.164;2023-05-19T05:24:54;13.77;;;9.77;;
10201;SDS011;5143;42.584;23.164;2023-05-19T05:27:23;16.07;;;10.13;;
10201;SDS011;5143;42.584;23.164;2023-05-19T05:29:50;15.10;;;9.40;;
10201;SDS011;5143;42.584;23.164;2023-05-19T05:32:16;16.53;;;11.70;;
10201;SDS011;5143;42.584;23.164;2023-05-19T05:34:43;23.40;;;10.60;;
10201;SDS011;5143;42.584;23.164;2023-05-19T05:37:10;21.33;;;10.33;;
10201;SDS011;5143;42.584;23.164;2023-05-19T05:39:37;19.23;;;10.83;;
10201;SDS011;5143;42.584;23.164;2023-05-19T05:42:04;23.10;;;10.43;;
10201;SDS011;5143;42.584;23.164;2023-05-19T05:44:34;19.73;;;10.27;;
10201;SDS011;5143;42.584;23.164;2023-05-19T05:47:01;15.17;;;9.57;;
10201;SDS011;5143;42.584;23.164;2023-05-19T05:49:28;13.60;;;9.27;;
10201;SDS011;5143;42.584;23.164;2023-05-19T05:51:55;20.10;;;8.70;;
10201;SDS011;5143;42.584;23.164;2023-05-19T05:54:23;21.60;;;8.80;;
10201;SDS011;5143;42.584;23.164;2023-05-19T05:56:50;15.30;;;8.10;;
10201;SDS011;5143;42.584;23.164;2023-05-19T05:59:17;15.63;;;7.90;;
10201;SDS011;5143;42.584;23.164;2023-05-19T06:01:45;10.97;;;7.13;;
10201;SDS011;5143;42.584;23.164;2023-05-19T06:04:12;18.70;;;8.53;;
10201;SDS011;5143;42.584;23.164;2023-05-19T06:06:39;13.83;;;7.70;;
10201;SDS011;5143;42.584;23.164;2023-05-19T06:09:06;15.00;;;7.60;;
10201;SDS011;5143;42.584;23.164;2023-05-19T06:11:33;17.70;;;7.30;;
10201;SDS011;5143;42.584;23.164;2023-05-19T06:13:59;15.40;;;8.03;;
10201;SDS011;5143;42.584;23.164;2023-05-19T06:16:26;15.47;;;7.70;;
10201;SDS011;5143;42.584;23.164;2023-05-19T06:18:54;14.20;;;7.77;;
10201;SDS011;5143;42.584;23.164;2023-05-19T06:21:22;12.77;;;6.90;;
10201;SDS011;5143;42.584;23.164;2023-05-19T06:23:49;14.57;;;6.93;;
10201;SDS011;5143;42.584;23.164;2023-05-19T06:26:16;11.83;;;6.70;;
10201;SDS011;5143;42.584;23.164;2023-05-19T06:28:43;13.30;;;6.80;;
10201;SDS011;5143;42.584;23.164;2023-05-19T06:31:09;11.27;;;5.97;;
10201;SDS011;5143;42.584;23.164;2023-05-19T06:33:36;10.47;;;6.47;;
10201;SDS011;5143;42.584;23.164;2023-05-19T06:36:04;7.53;;;5.80;;
10201;SDS011;5143;42.584;23.164;2023-05-19T06:38:32;14.65;;;5.85;;
10201;SDS011;5143;42.584;23.164;2023-05-19T06:40:59;9.10;;;5.30;;
10201;SDS011;5143;42.584;23.164;2023-05-19T06:43:25;9.88;;;6.03;;
10201;SDS011;5143;42.584;23.164;2023-05-19T06:45:52;10.18;;;5.72;;
10201;SDS011;5143;42.584;23.164;2023-05-19T06:48:19;7.15;;;4.70;;
10201;SDS011;5143;42.584;23.164;2023-05-19T06:50:46;10.00;;;5.10;;
10201;SDS011;5143;42.584;23.164;2023-05-19T06:53:15;6.68;;;4.70;;
10201;SDS011;5143;42.584;23.164;2023-05-19T06:55:42;6.10;;;4.45;;
10201;SDS011;5143;42.584;23.164;2023-05-19T06:58:08;7.32;;;4.35;;
10201;SDS011;5143;42.584;23.164;2023-05-19T07:00:35;11.80;;;4.82;;
10201;SDS011;5143;42.584;23.164;2023-05-19T07:03:02;8.35;;;4.05;;
10201;SDS011;5143;42.584;23.164;2023-05-19T07:05:29;10.13;;;4.35;;
10201;SDS011;5143;42.584;23.164;2023-05-19T07:07:55;13.23;;;4.32;;
10201;SDS011;5143;42.584;23.164;2023-05-19T07:10:24;10.25;;;4.75;;
10201;SDS011;5143;42.584;23.164;2023-05-19T07:12:51;9.60;;;4.13;;
10201;SDS011;5143;42.584;23.164;2023-05-19T07:15:17;6.03;;;4.38;;
10201;SDS011;5143;42.584;23.164;2023-05-19T07:17:44;9.90;;;4.97;;
10201;SDS011;5143;42.584;23.164;2023-05-19T07:20:11;8.57;;;3.78;;
10201;SDS011;5143;42.584;23.164;2023-05-19T07:22:38;5.30;;;3.80;;
10201;SDS011;5143;42.584;23.164;2023-05-19T07:25:05;4.50;;;3.53;;
10201;SDS011;5143;42.584;23.164;2023-05-19T07:27:34;3.67;;;3.38;;
10201;SDS011;5143;42.584;23.164;2023-05-19T07:30:01;5.45;;;3.35;;
10201;SDS011;5143;42.584;23.164;2023-05-19T07:32:28;11.27;;;3.80;;
10201;SDS011;5143;42.584;23.164;2023-05-19T07:34:54;8.30;;;4.57;;
10201;SDS011;5143;42.584;23.164;2023-05-19T07:37:21;10.77;;;4.40;;
10201;SDS011;5143;42.584;23.164;2023-05-19T07:39:48;6.27;;;4.60;;
10201;SDS011;5143;42.584;23.164;2023-05-19T07:42:14;8.60;;;4.57;;
10201;SDS011;5143;42.584;23.164;2023-05-19T07:44:42;6.80;;;4.30;;
10201;SDS011;5143;42.584;23.164;2023-05-19T07:47:09;8.87;;;4.07;;
10201;SDS011;5143;42.584;23.164;2023-05-19T07:49:36;12.93;;;4.20;;
10201;SDS011;5143;42.584;23.164;2023-05-19T07:52:03;10.50;;;4.70;;
10201;SDS011;5143;42.584;23.164;2023-05-19T07:54:30;8.30;;;4.57;;
10201;SDS011;5143;42.584;23.164;2023-05-19T07:56:57;9.50;;;4.43;;
10201;SDS011;5143;42.584;23.164;2023-05-19T07:59:24;6.63;;;4.47;;
10201;SDS011;5143;42.584;23.164;2023-05-19T08:01:52;10.40;;;4.83;;
10201;SDS011;5143;42.584;23.164;2023-05-19T08:04:18;8.73;;;4.93;;
10201;SDS011;5143;42.584;23.164;2023-05-19T08:06:45;9.37;;;5.07;;
10201;SDS011;5143;42.584;23.164;2023-05-19T08:09:12;6.10;;;4.60;;
10201;SDS011;5143;42.584;23.164;2023-05-19T08:11:39;7.67;;;4.70;;
10201;SDS011;5143;42.584;23.164;2023-05-19T08:14:05;8.27;;;5.43;;
10201;SDS011;5143;42.584;23.164;2023-05-19T08:16:32;10.33;;;5.40;;
10201;SDS011;5143;42.584;23.164;2023-05-19T08:19:00;8.80;;;5.67;;
10201;SDS011;5143;42.584;23.164;2023-05-19T08:21:29;7.77;;;5.03;;
10201;SDS011;5143;42.584;23.164;2023-05-19T08:23:58;7.87;;;4.83;;
10201;SDS011;5143;42.584;23.164;2023-05-19T08:26:25;13.03;;;5.63;;
10201;SDS011;5143;42.584;23.164;2023-05-19T08:28:52;8.00;;;5.13;;
10201;SDS011;5143;42.584;23.164;2023-05-19T08:31:19;5.53;;;4.97;;
10201;SDS011;5143;42.584;23.164;2023-05-19T08:33:46;7.50;;;5.63;;
10201;SDS011;5143;42.584;23.164;2023-05-19T08:36:14;9.77;;;5.60;;
10201;SDS011;5143;42.584;23.164;2023-05-19T08:38:41;12.57;;;6.13;;
10201;SDS011;5143;42.584;23.164;2023-05-19T08:41:08;7.33;;;6.10;;
10201;SDS011;5143;42.584;23.164;2023-05-19T08:43:34;6.83;;;4.73;;
10201;SDS011;5143;42.584;23.164;2023-05-19T08:46:03;7.77;;;6.63;;
10201;SDS011;5143;42.584;23.164;2023-05-19T08:48:31;11.47;;;7.17;;
10201;SDS011;5143;42.584;23.164;2023-05-19T08:51:07;6.53;;;5.93;;
10201;SDS011;5143;42.584;23.164;2023-05-19T08:53:41;10.53;;;6.10;;
10201;SDS011;5143;42.584;23.164;2023-05-19T08:56:14;11.93;;;6.20;;
10201;SDS011;5143;42.584;23.164;2023-05-19T08:58:45;12.60;;;6.13;;
10201;SDS011;5143;42.584;23.164;2023-05-19T09:01:15;8.27;;;6.23;;
10201;SDS011;5143;42.584;23.164;2023-05-19T09:03:42;9.40;;;6.13;;
10201;SDS011;5143;42.584;23.164;2023-05-19T09:06:10;11.43;;;6.60;;
10201;SDS011;5143;42.584;23.164;2023-05-19T09:08:37;8.17;;;6.13;;
10201;SDS011;5143;42.584;23.164;2023-05-19T09:11:06;16.70;;;7.20;;
10201;SDS011;5143;42.584;23.164;2023-05-19T09:13:33;9.53;;;6.77;;
10201;SDS011;5143;42.584;23.164;2023-05-19T09:16:00;14.53;;;7.27;;
10201;SDS011;5143;42.584;23.164;2023-05-19T09:18:28;8.70;;;6.57;;
10201;SDS011;5143;42.584;23.164;2023-05-19T09:20:55;12.37;;;6.70;;
10201;SDS011;5143;42.584;23.164;2023-05-19T09:23:27;9.73;;;6.50;;
10201;SDS011;5143;42.584;23.164;2023-05-19T09:25:54;9.33;;;6.57;;
10201;SDS011;5143;42.584;23.164;2023-05-19T09:28:24;13.50;;;6.73;;
10201;SDS011;5143;42.584;23.164;2023-05-19T09:30:58;11.73;;;7.57;;
10201;SDS011;5143;42.584;23.164;2023-05-19T09:33:25;11.43;;;6.43;;
10201;SDS011;5143;42.584;23.164;2023-05-19T09:35:53;13.43;;;7.17;;
10201;SDS011;5143;42.584;23.164;2023-05-19T09:38:20;8.03;;;6.70;;
10201;SDS011;5143;42.584;23.164;2023-05-19T09:40:48;10.87;;;7.57;;
10201;SDS011;5143;42.584;23.164;2023-05-19T09:43:15;8.97;;;7.07;;
10201;SDS011;5143;42.584;23.164;2023-05-19T09:45:43;12.47;;;6.50;;
10201;SDS011;5143;42.584;23.164;2023-05-19T09:48:10;11.23;;;6.87;;
10201;SDS011;5143;42.584;23.164;2023-05-19T09:50:37;9.03;;;6.80;;
10201;SDS011;5143;42.584;23.164;2023-05-19T09:53:04;11.33;;;7.23;;
10201;SDS011;5143;42.584;23.164;2023-05-19T09:55:31;14.77;;;7.43;;
10201;SDS011;5143;42.584;23.164;2023-05-19T09:57:58;8.50;;;7.30;;
10201;SDS011;5143;42.584;23.164;2023-05-19T10:00:28;11.00;;;7.23;;
10201;SDS011;5143;42.584;23.164;2023-05-19T10:02:59;13.00;;;7.13;;
10201;SDS011;5143;42.584;23.164;2023-05-19T10:05:29;9.50;;;7.20;;
10201;SDS011;5143;42.584;23.164;2023-05-19T10:07:58;8.23;;;6.80;;
10201;SDS011;5143;42.584;23.164;2023-05-19T10:10:25;7.27;;;6.40;;
10201;SDS011;5143;42.584;23.164;2023-05-19T10:12:54;10.00;;;6.73;;
10201;SDS011;5143;42.584;23.164;2023-05-19T10:15:21;11.57;;;7.00;;
10201;SDS011;5143;42.584;23.164;2023-05-19T10:17:48;10.03;;;6.40;;
10201;SDS011;5143;42.584;23.164;2023-05-19T10:20:16;10.33;;;7.67;;
10201;SDS011;5143;42.584;23.164;2023-05-19T10:22:44;10.27;;;6.97;;
10201;SDS011;5143;42.584;23.164;2023-05-19T10:25:12;13.50;;;6.77;;
10201;SDS011;5143;42.584;23.164;2023-05-19T10:27:43;9.17;;;6.50;;
10201;SDS011;5143;42.584;23.164;2023-05-19T10:30:17;9.10;;;6.87;;
10201;SDS011;5143;42.584;23.164;2023-05-19T10:32:47;13.20;;;7.77;;
10201;SDS011;5143;42.584;23.164;2023-05-19T10:35:23;12.17;;;7.10;;
10201;SDS011;5143;42.584;23.164;2023-05-19T10:38:04;10.67;;;7.13;;
10201;SDS011;5143;42.584;23.164;2023-05-19T10:40:40;9.17;;;6.87;;
10201;SDS011;5143;42.584;23.164;2023-05-19T10:43:20;9.87;;;6.10;;
10201;SDS011;5143;42.584;23.164;2023-05-19T10:45:51;9.13;;;6.90;;
10201;SDS011;5143;42.584;23.164;2023-05-19T10:48:19;27.13;;;9.57;;
10201;SDS011;5143;42.584;23.164;2023-05-19T10:50:48;10.23;;;6.83;;
10201;SDS011;5143;42.584;23.164;2023-05-19T10:53:19;11.43;;;6.23;;
10201;SDS011;5143;42.584;23.164;2023-05-19T10:55:50;15.53;;;7.00;;
10201;SDS011;5143;42.584;23.164;2023-05-19T10:58:35;12.10;;;6.40;;
10201;SDS011;5143;42.584;23.164;2023-05-19T11:01:05;8.97;;;6.03;;
10201;SDS011;5143;42.584;23.164;2023-05-19T11:03:41;12.20;;;6.97;;
10201;SDS011;5143;42.584;23.164;2023-05-19T11:06:23;7.37;;;5.83;;
10201;SDS011;5143;42.584;23.164;2023-05-19T11:08:51;10.37;;;6.33;;
10201;SDS011;5143;42.584;23.164;2023-05-19T11:11:22;9.00;;;6.23;;
10201;SDS011;5143;42.584;23.164;2023-05-19T11:13:50;10.27;;;6.50;;
10201;SDS011;5143;42.584;23.164;2023-05-19T11:16:18;8.23;;;5.93;;
10201;SDS011;5143;42.584;23.164;2023-05-19T11:18:52;9.37;;;5.90;;
10201;SDS011;5143;42.584;23.164;2023-05-19T11:21:19;11.17;;;5.73;;
10201;SDS011;5143;42.584;23.164;2023-05-19T11:23:47;9.10;;;6.60;;
10201;SDS011;5143;42.584;23.164;2023-05-19T11:26:16;9.33;;;5.60;;
10201;SDS011;5143;42.584;23.164;2023-05-19T11:29:07;8.03;;;5.53;;
10201;SDS011;5143;42.584;23.164;2023-05-19T11:31:34;11.93;;;5.57;;
10201;SDS011;5143;42.584;23.164;2023-05-19T11:34:01;16.03;;;5.90;;
10201;SDS011;5143;42.584;23.164;2023-05-19T11:36:31;7.50;;;5.10;;
10201;SDS011;5143;42.584;23.164;2023-05-19T11:39:00;9.57;;;5.40;;
10201;SDS011;5143;42.584;23.164;2023-05-19T11:41:28;10.20;;;5.93;;
10201;SDS011;5143;42.584;23.164;2023-05-19T11:43:55;8.43;;;6.17;;
10201;SDS011;5143;42.584;23.164;2023-05-19T11:46:21;6.67;;;5.67;;
10201;SDS011;5143;42.584;23.164;2023-05-19T11:48:49;13.47;;;6.97;;
10201;SDS011;5143;42.584;23.164;2023-05-19T11:51:16;9.80;;;6.07;;
10201;SDS011;5143;42.584;23.164;2023-05-19T11:53:42;10.97;;;5.57;;
10201;SDS011;5143;42.584;23.164;2023-05-19T11:56:11;10.40;;;5.10;;
10201;SDS011;5143;42.584;23.164;2023-05-19T11:58:39;6.03;;;4.73;;
10201;SDS011;5143;42.584;23.164;2023-05-19T12:01:06;6.30;;;5.13;;
10201;SDS011;5143;42.584;23.164;2023-05-19T12:03:34;8.10;;;5.00;;
10201;SDS011;5143;42.584;23.164;2023-05-19T12:06:01;8.10;;;5.73;;
10201;SDS011;5143;42.584;23.164;2023-05-19T12:08:29;10.13;;;5.70;;
10201;SDS011;5143;42.584;23.164;2023-05-19T12:10:56;8.33;;;5.40;;
10201;SDS011;5143;42.584;23.164;2023-05-19T12:13:24;10.03;;;6.13;;
10201;SDS011;5143;42.584;23.164;2023-05-19T12:15:52;8.47;;;5.83;;
10201;SDS011;5143;42.584;23.164;2023-05-19T12:18:19;10.30;;;5.63;;
10201;SDS011;5143;42.584;23.164;2023-05-19T12:20:46;30.80;;;11.53;;
10201;SDS011;5143;42.584;23.164;2023-05-19T12:23:13;11.73;;;5.77;;
10201;SDS011;5143;42.584;23.164;2023-05-19T12:25:40;32.50;;;12.07;;
10201;SDS011;5143;42.584;23.164;2023-05-19T12:28:07;7.40;;;4.33;;
10201;SDS011;5143;42.584;23.164;2023-05-19T12:30:36;6.07;;;3.73;;
10201;SDS011;5143;42.584;23.164;2023-05-19T12:33:04;13.93;;;6.13;;
10201;SDS011;5143;42.584;23.164;2023-05-19T12:35:31;8.33;;;5.60;;
10201;SDS011;5143;42.584;23.164;2023-05-19T12:38:01;7.97;;;3.10;;
10201;SDS011;5143;42.584;23.164;2023-05-19T12:40:28;20.07;;;7.50;;
10201;SDS011;5143;42.584;23.164;2023-05-19T12:42:55;20.83;;;6.60;;
10201;SDS011;5143;42.584;23.164;2023-05-19T12:45:23;11.73;;;5.07;;
10201;SDS011;5143;42.584;23.164;2023-05-19T12:47:53;11.23;;;2.30;;
10201;SDS011;5143;42.584;23.164;2023-05-19T12:50:20;9.57;;;3.53;;
10201;SDS011;5143;42.584;23.164;2023-05-19T12:52:47;15.63;;;5.40;;
10201;SDS011;5143;42.584;23.164;2023-05-19T12:55:16;5.67;;;3.30;;
10201;SDS011;5143;42.584;23.164;2023-05-19T12:57:47;12.67;;;4.87;;
10201;SDS011;5143;42.584;23.164;2023-05-19T13:00:16;8.47;;;3.83;;
10201;SDS011;5143;42.584;23.164;2023-05-19T13:02:55;7.50;;;4.10;;
10201;SDS011;5143;42.584;23.164;2023-05-19T13:05:23;6.00;;;4.70;;
10201;SDS011;5143;42.584;23.164;2023-05-19T13:07:54;7.43;;;5.00;;
10201;SDS011;5143;42.584;23.164;2023-05-19T13:10:21;6.63;;;4.83;;
10201;SDS011;5143;42.584;23.164;2023-05-19T13:12:51;6.43;;;5.00;;
10201;SDS011;5143;42.584;23.164;2023-05-19T13:15:18;7.40;;;5.00;;
10201;SDS011;5143;42.584;23.164;2023-05-19T13:17:45;7.70;;;4.70;;
10201;SDS011;5143;42.584;23.164;2023-05-19T13:20:13;5.90;;;4.50;;
10201;SDS011;5143;42.584;23.164;2023-05-19T13:22:39;10.13;;;4.73;;
10201;SDS011;5143;42.584;23.164;2023-05-19T13:25:07;5.30;;;4.80;;
10201;SDS011;5143;42.584;23.164;2023-05-19T13:27:34;8.87;;;4.50;;
10201;SDS011;5143;42.584;23.164;2023-05-19T13:30:01;6.47;;;4.67;;
10201;SDS011;5143;42.584;23.164;2023-05-19T13:32:28;5.73;;;5.10;;
10201;SDS011;5143;42.584;23.164;2023-05-19T13:34:55;7.20;;;4.83;;
10201;SDS011;5143;42.584;23.164;2023-05-19T13:37:24;18.60;;;5.60;;
10201;SDS011;5143;42.584;23.164;2023-05-19T13:39:51;5.00;;;4.50;;
10201;SDS011;5143;42.584;23.164;2023-05-19T13:42:17;7.77;;;5.40;;
10201;SDS011;5143;42.584;23.164;2023-05-19T13:44:44;6.23;;;4.40;;
10201;SDS011;5143;42.584;23.164;2023-05-19T13:47:11;5.50;;;4.13;;
10201;SDS011;5143;42.584;23.164;2023-05-19T13:49:38;5.37;;;4.40;;
10201;SDS011;5143;42.584;23.164;2023-05-19T13:52:05;4.80;;;4.27;;
10201;SDS011;5143;42.584;23.164;2023-05-19T13:54:33;8.10;;;4.60;;
10201;SDS011;5143;42.584;23.164;2023-05-19T13:57:00;12.53;;;4.97;;
10201;SDS011;5143;42.584;23.164;2023-05-19T13:59:27;8.17;;;4.07;;
10201;SDS011;5143;42.584;23.164;2023-05-19T14:01:54;8.90;;;5.00;;
10201;SDS011;5143;42.584;23.164;2023-05-19T14:04:20;5.07;;;4.20;;
10201;SDS011;5143;42.584;23.164;2023-05-19T14:06:48;5.20;;;4.33;;
10201;SDS011;5143;42.584;23.164;2023-05-19T14:09:15;10.03;;;4.17;;
10201;SDS011;5143;42.584;23.164;2023-05-19T14:11:43;16.07;;;5.37;;
10201;SDS011;5143;42.584;23.164;2023-05-19T14:14:10;10.87;;;5.60;;
10201;SDS011;5143;42.584;23.164;2023-05-19T14:16:36;7.03;;;4.77;;
10201;SDS011;5143;42.584;23.164;2023-05-19T14:19:03;9.13;;;5.37;;
10201;SDS011;5143;42.584;23.164;2023-05-19T14:21:30;10.70;;;5.10;;
10201;SDS011;5143;42.584;23.164;2023-05-19T14:23:56;13.67;;;5.70;;
10201;SDS011;5143;42.584;23.164;2023-05-19T14:26:23;10.87;;;5.67;;
10201;SDS011;5143;42.584;23.164;2023-05-19T14:28:51;12.90;;;5.30;;
10201;SDS011;5143;42.584;23.164;2023-05-19T14:31:18;9.30;;;6.03;;
10201;SDS011;5143;42.584;23.164;2023-05-19T14:33:45;7.53;;;5.70;;
10201;SDS011;5143;42.584;23.164;2023-05-19T14:36:11;8.80;;;6.20;;
10201;SDS011;5143;42.584;23.164;2023-05-19T14:38:38;10.00;;;5.47;;
10201;SDS011;5143;42.584;23.164;2023-05-19T14:41:05;9.87;;;5.13;;
10201;SDS011;5143;42.584;23.164;2023-05-19T14:43:32;10.47;;;5.23;;
10201;SDS011;5143;42.584;23.164;2023-05-19T14:46:00;8.63;;;5.30;;
10201;SDS011;5143;42.584;23.164;2023-05-19T14:48:27;10.70;;;5.53;;
10201;SDS011;5143;42.584;23.164;2023-05-19T14:50:53;15.60;;;5.90;;